sensor_id;sensor_type;location;lat;lon;timestamp;P1;durP1;ratioP1;P2;durP2;ratioP2
4464;SDS011;2245;48.136;13.428;2022-12-15T00:00:17;28.10;;;13.87;;
4464;SDS011;2245;48.136;13.428;2022-12-15T00:03:05;28.03;;;12.93;;
4464;SDS011;2245;48.136;13.428;2022-12-15T00:05:49;27.60;;;14.40;;
4464;SDS011;2245;48.136;13.428;2022-12-15T00:08:35;29.63;;;14.73;;
4464;SDS011;2245;48.136;13.428;2022-12-15T00:11:19;30.40;;;14.47;;
4464;SDS011;2245;48.136;13.428;2022-12-15T00:14:03;29.43;;;15.03;;
4464;SDS011;2245;48.136;13.428;2022-12-15T00:16:48;35.87;;;19.13;;
4464;SDS011;2245;48.136;13.428;2022-12-15T00:19:32;32.40;;;17.23;;
4464;SDS011;2245;48.136;13.428;2022-12-15T00:22:16;30.87;;;14.90;;
4464;SDS011;2245;48.136;13.428;2022-12-15T00:25:01;25.13;;;14.27;;
4464;SDS011;2245;48.136;13.428;2022-12-15T00:27:46;27.93;;;13.63;;
4464;SDS011;2245;48.136;13.428;2022-12-15T00:30:30;26.57;;;12.70;;
4464;SDS011;2245;48.136;13.428;2022-12-15T00:33:14;28.07;;;13.97;;
4464;SDS011;2245;48.136;13.428;2022-12-15T00:35:58;29.07;;;12.90;;
4464;SDS011;2245;48.136;13.428;2022-12-15T00:38:43;29.83;;;14.10;;
4464;SDS011;2245;48.136;13.428;2022-12-15T00:41:12;32.10;;;15.37;;
4464;SDS011;2245;48.136;13.428;2022-12-15T00:43:39;29.37;;;15.00;;
4464;SDS011;2245;48.136;13.428;2022-12-15T00:46:06;31.77;;;15.60;;
4464;SDS011;2245;48.136;13.428;2022-12-15T00:48:47;35.33;;;13.93;;
4464;SDS011;2245;48.136;13.428;2022-12-15T00:51:13;26.67;;;13.90;;
4464;SDS011;2245;48.136;13.428;2022-12-15T00:53:40;30.37;;;14.67;;
4464;SDS011;2245;48.136;13.428;2022-12-15T00:56:26;35.33;;;16.60;;
4464;SDS011;2245;48.136;13.428;2022-12-15T00:59:10;34.43;;;16.87;;
4464;SDS011;2245;48.136;13.428;2022-12-15T01:01:56;28.53;;;14.50;;
4464;SDS011;2245;48.136;13.428;2022-12-15T01:04:40;31.30;;;14.33;;
4464;SDS011;2245;48.136;13.428;2022-12-15T01:07:24;26.50;;;14.40;;
4464;SDS011;2245;48.136;13.428;2022-12-15T01:10:09;29.60;;;15.60;;
4464;SDS011;2245;48.136;13.428;2022-12-15T01:12:55;35.17;;;17.83;;
4464;SDS011;2245;48.136;13.428;2022-12-15T01:15:39;32.13;;;15.60;;
4464;SDS011;2245;48.136;13.428;2022-12-15T01:18:23;34.97;;;16.00;;
4464;SDS011;2245;48.136;13.428;2022-12-15T01:21:08;28.30;;;12.97;;
4464;SDS011;2245;48.136;13.428;2022-12-15T01:23:36;33.70;;;15.50;;
4464;SDS011;2245;48.136;13.428;2022-12-15T01:26:03;32.93;;;16.70;;
4464;SDS011;2245;48.136;13.428;2022-12-15T01:28:32;32.10;;;15.80;;
4464;SDS011;2245;48.136;13.428;2022-12-15T01:30:58;32.00;;;16.13;;
4464;SDS011;2245;48.136;13.428;2022-12-15T01:33:25;28.50;;;14.63;;
4464;SDS011;2245;48.136;13.428;2022-12-15T01:35:56;34.47;;;16.33;;
4464;SDS011;2245;48.136;13.428;2022-12-15T01:38:23;29.70;;;15.13;;
4464;SDS011;2245;48.136;13.428;2022-12-15T01:40:52;37.90;;;18.43;;
4464;SDS011;2245;48.136;13.428;2022-12-15T01:43:21;35.13;;;16.73;;
4464;SDS011;2245;48.136;13.428;2022-12-15T01:45:51;39.33;;;18.20;;
4464;SDS011;2245;48.136;13.428;2022-12-15T01:48:25;34.70;;;16.17;;
4464;SDS011;2245;48.136;13.428;2022-12-15T01:50:58;41.50;;;18.90;;
4464;SDS011;2245;48.136;13.428;2022-12-15T01:53:27;36.40;;;16.90;;
4464;SDS011;2245;48.136;13.428;2022-12-15T01:55:55;37.50;;;18.50;;
4464;SDS011;2245;48.136;13.428;2022-12-15T01:58:23;43.53;;;23.47;;
4464;SDS011;2245;48.136;13.428;2022-12-15T02:00:51;40.60;;;19.10;;
4464;SDS011;2245;48.136;13.428;2022-12-15T02:03:18;32.33;;;17.47;;
4464;SDS011;2245;48.136;13.428;2022-12-15T02:05:45;35.10;;;16.30;;
4464;SDS011;2245;48.136;13.428;2022-12-15T02:08:12;38.60;;;16.57;;
4464;SDS011;2245;48.136;13.428;2022-12-15T02:10:41;36.57;;;16.73;;
4464;SDS011;2245;48.136;13.428;2022-12-15T02:13:18;40.97;;;18.50;;
4464;SDS011;2245;48.136;13.428;2022-12-15T02:15:52;34.10;;;16.93;;
4464;SDS011;2245;48.136;13.428;2022-12-15T02:18:22;32.93;;;14.77;;
4464;SDS011;2245;48.136;13.428;2022-12-15T02:20:54;34.07;;;17.37;;
4464;SDS011;2245;48.136;13.428;2022-12-15T02:23:37;35.80;;;17.53;;
4464;SDS011;2245;48.136;13.428;2022-12-15T02:26:19;37.90;;;17.27;;
4464;SDS011;2245;48.136;13.428;2022-12-15T02:28:57;34.03;;;15.87;;
4464;SDS011;2245;48.136;13.428;2022-12-15T02:31:31;36.50;;;16.17;;
4464;SDS011;2245;48.136;13.428;2022-12-15T02:34:16;36.30;;;17.93;;
4464;SDS011;2245;48.136;13.428;2022-12-15T02:36:48;34.20;;;16.67;;
4464;SDS011;2245;48.136;13.428;2022-12-15T02:39:17;41.10;;;19.20;;
4464;SDS011;2245;48.136;13.428;2022-12-15T02:41:44;43.47;;;18.87;;
4464;SDS011;2245;48.136;13.428;2022-12-15T02:44:14;35.87;;;18.90;;
4464;SDS011;2245;48.136;13.428;2022-12-15T02:46:47;41.37;;;17.80;;
4464;SDS011;2245;48.136;13.428;2022-12-15T02:49:21;33.30;;;15.87;;
4464;SDS011;2245;48.136;13.428;2022-12-15T02:51:58;32.80;;;15.13;;
4464;SDS011;2245;48.136;13.428;2022-12-15T02:54:33;40.23;;;17.60;;
4464;SDS011;2245;48.136;13.428;2022-12-15T02:57:04;36.43;;;16.27;;
4464;SDS011;2245;48.136;13.428;2022-12-15T02:59:40;44.50;;;19.30;;
4464;SDS011;2245;48.136;13.428;2022-12-15T03:02:11;49.23;;;19.90;;
4464;SDS011;2245;48.136;13.428;2022-12-15T03:04:39;47.30;;;20.70;;
4464;SDS011;2245;48.136;13.428;2022-12-15T03:07:08;42.93;;;20.80;;
4464;SDS011;2245;48.136;13.428;2022-12-15T03:09:35;48.53;;;22.47;;
4464;SDS011;2245;48.136;13.428;2022-12-15T03:12:02;44.27;;;20.07;;
4464;SDS011;2245;48.136;13.428;2022-12-15T03:14:29;37.97;;;19.50;;
4464;SDS011;2245;48.136;13.428;2022-12-15T03:16:56;40.10;;;20.13;;
4464;SDS011;2245;48.136;13.428;2022-12-15T03:19:24;44.90;;;20.67;;
4464;SDS011;2245;48.136;13.428;2022-12-15T03:21:51;38.90;;;17.80;;
4464;SDS011;2245;48.136;13.428;2022-12-15T03:24:18;46.10;;;19.70;;
4464;SDS011;2245;48.136;13.428;2022-12-15T03:26:45;46.03;;;23.50;;
4464;SDS011;2245;48.136;13.428;2022-12-15T03:29:14;49.07;;;21.97;;
4464;SDS011;2245;48.136;13.428;2022-12-15T03:31:41;51.40;;;20.90;;
4464;SDS011;2245;48.136;13.428;2022-12-15T03:34:08;53.63;;;22.73;;
4464;SDS011;2245;48.136;13.428;2022-12-15T03:36:36;50.60;;;23.40;;
4464;SDS011;2245;48.136;13.428;2022-12-15T03:39:03;51.17;;;22.77;;
4464;SDS011;2245;48.136;13.428;2022-12-15T03:41:30;56.60;;;25.57;;
4464;SDS011;2245;48.136;13.428;2022-12-15T03:43:57;50.90;;;22.67;;
4464;SDS011;2245;48.136;13.428;2022-12-15T03:46:24;53.53;;;23.63;;
4464;SDS011;2245;48.136;13.428;2022-12-15T03:48:51;46.87;;;20.80;;
4464;SDS011;2245;48.136;13.428;2022-12-15T03:51:17;48.80;;;20.33;;
4464;SDS011;2245;48.136;13.428;2022-12-15T03:53:46;54.57;;;23.23;;
4464;SDS011;2245;48.136;13.428;2022-12-15T03:56:13;69.10;;;25.00;;
4464;SDS011;2245;48.136;13.428;2022-12-15T03:58:40;46.37;;;22.77;;
4464;SDS011;2245;48.136;13.428;2022-12-15T04:01:10;49.47;;;23.27;;
4464;SDS011;2245;48.136;13.428;2022-12-15T04:03:38;52.40;;;24.20;;
4464;SDS011;2245;48.136;13.428;2022-12-15T04:06:04;50.30;;;24.10;;
4464;SDS011;2245;48.136;13.428;2022-12-15T04:08:32;53.43;;;23.60;;
4464;SDS011;2245;48.136;13.428;2022-12-15T04:11:00;48.93;;;23.30;;
4464;SDS011;2245;48.136;13.428;2022-12-15T04:13:27;56.07;;;24.07;;
4464;SDS011;2245;48.136;13.428;2022-12-15T04:15:53;48.40;;;23.27;;
4464;SDS011;2245;48.136;13.428;2022-12-15T04:18:20;54.93;;;22.70;;
4464;SDS011;2245;48.136;13.428;2022-12-15T04:20:47;64.00;;;26.67;;
4464;SDS011;2245;48.136;13.428;2022-12-15T04:23:13;53.77;;;26.13;;
4464;SDS011;2245;48.136;13.428;2022-12-15T04:25:39;60.37;;;23.70;;
4464;SDS011;2245;48.136;13.428;2022-12-15T04:28:25;56.63;;;25.13;;
4464;SDS011;2245;48.136;13.428;2022-12-15T04:31:10;61.27;;;25.40;;
4464;SDS011;2245;48.136;13.428;2022-12-15T04:33:56;50.70;;;23.03;;
4464;SDS011;2245;48.136;13.428;2022-12-15T04:36:43;39.23;;;20.60;;
4464;SDS011;2245;48.136;13.428;2022-12-15T04:39:28;56.37;;;22.57;;
4464;SDS011;2245;48.136;13.428;2022-12-15T04:42:12;60.87;;;23.63;;
4464;SDS011;2245;48.136;13.428;2022-12-15T04:44:59;63.03;;;23.70;;
4464;SDS011;2245;48.136;13.428;2022-12-15T04:47:45;42.00;;;19.70;;
4464;SDS011;2245;48.136;13.428;2022-12-15T04:50:29;63.50;;;25.70;;
4464;SDS011;2245;48.136;13.428;2022-12-15T04:53:14;57.80;;;25.50;;
4464;SDS011;2245;48.136;13.428;2022-12-15T04:55:59;53.70;;;21.90;;
4464;SDS011;2245;48.136;13.428;2022-12-15T04:58:43;52.80;;;22.60;;
4464;SDS011;2245;48.136;13.428;2022-12-15T05:01:29;57.43;;;25.77;;
4464;SDS011;2245;48.136;13.428;2022-12-15T05:04:13;56.77;;;25.00;;
4464;SDS011;2245;48.136;13.428;2022-12-15T05:06:57;63.90;;;24.50;;
4464;SDS011;2245;48.136;13.428;2022-12-15T05:09:41;55.73;;;23.03;;
4464;SDS011;2245;48.136;13.428;2022-12-15T05:12:25;57.47;;;24.00;;
4464;SDS011;2245;48.136;13.428;2022-12-15T05:15:10;60.57;;;24.47;;
4464;SDS011;2245;48.136;13.428;2022-12-15T05:17:55;58.90;;;25.87;;
4464;SDS011;2245;48.136;13.428;2022-12-15T05:20:40;62.70;;;27.90;;
4464;SDS011;2245;48.136;13.428;2022-12-15T05:23:24;69.33;;;27.00;;
4464;SDS011;2245;48.136;13.428;2022-12-15T05:26:08;63.60;;;25.13;;
4464;SDS011;2245;48.136;13.428;2022-12-15T05:28:52;64.33;;;25.87;;
4464;SDS011;2245;48.136;13.428;2022-12-15T05:31:37;63.07;;;25.37;;
4464;SDS011;2245;48.136;13.428;2022-12-15T05:34:17;60.27;;;25.77;;
4464;SDS011;2245;48.136;13.428;2022-12-15T05:36:45;66.13;;;25.83;;
4464;SDS011;2245;48.136;13.428;2022-12-15T05:39:12;54.37;;;22.30;;
4464;SDS011;2245;48.136;13.428;2022-12-15T05:41:39;67.57;;;26.50;;
4464;SDS011;2245;48.136;13.428;2022-12-15T05:44:06;51.23;;;22.00;;
4464;SDS011;2245;48.136;13.428;2022-12-15T05:46:34;61.53;;;26.80;;
4464;SDS011;2245;48.136;13.428;2022-12-15T05:49:01;59.27;;;23.70;;
4464;SDS011;2245;48.136;13.428;2022-12-15T05:51:30;72.93;;;26.70;;
4464;SDS011;2245;48.136;13.428;2022-12-15T05:53:57;60.33;;;23.10;;
4464;SDS011;2245;48.136;13.428;2022-12-15T05:56:24;65.20;;;26.60;;
4464;SDS011;2245;48.136;13.428;2022-12-15T05:58:54;71.40;;;30.30;;
4464;SDS011;2245;48.136;13.428;2022-12-15T06:01:21;80.27;;;29.50;;
4464;SDS011;2245;48.136;13.428;2022-12-15T06:03:48;61.60;;;24.37;;
4464;SDS011;2245;48.136;13.428;2022-12-15T06:06:15;73.03;;;27.70;;
4464;SDS011;2245;48.136;13.428;2022-12-15T06:08:43;69.43;;;27.23;;
4464;SDS011;2245;48.136;13.428;2022-12-15T06:11:10;67.27;;;29.13;;
4464;SDS011;2245;48.136;13.428;2022-12-15T06:13:37;57.63;;;26.20;;
4464;SDS011;2245;48.136;13.428;2022-12-15T06:16:05;60.93;;;26.93;;
4464;SDS011;2245;48.136;13.428;2022-12-15T06:18:36;65.97;;;26.03;;
4464;SDS011;2245;48.136;13.428;2022-12-15T06:21:04;72.63;;;26.70;;
4464;SDS011;2245;48.136;13.428;2022-12-15T06:23:32;68.10;;;27.57;;
4464;SDS011;2245;48.136;13.428;2022-12-15T06:26:06;66.63;;;29.00;;
4464;SDS011;2245;48.136;13.428;2022-12-15T06:28:34;47.00;;;17.50;;
4464;SDS011;2245;48.136;13.428;2022-12-15T06:31:01;62.60;;;25.13;;
4464;SDS011;2245;48.136;13.428;2022-12-15T06:33:29;70.67;;;26.63;;
4464;SDS011;2245;48.136;13.428;2022-12-15T06:35:56;58.80;;;26.00;;
4464;SDS011;2245;48.136;13.428;2022-12-15T06:38:27;66.30;;;27.30;;
4464;SDS011;2245;48.136;13.428;2022-12-15T06:40:54;71.10;;;28.23;;
4464;SDS011;2245;48.136;13.428;2022-12-15T06:43:22;75.40;;;26.27;;
4464;SDS011;2245;48.136;13.428;2022-12-15T06:45:49;71.87;;;30.80;;
4464;SDS011;2245;48.136;13.428;2022-12-15T06:48:16;66.30;;;27.80;;
4464;SDS011;2245;48.136;13.428;2022-12-15T06:50:43;86.70;;;36.50;;
4464;SDS011;2245;48.136;13.428;2022-12-15T06:53:10;78.63;;;34.67;;
4464;SDS011;2245;48.136;13.428;2022-12-15T06:55:37;68.90;;;30.23;;
4464;SDS011;2245;48.136;13.428;2022-12-15T06:58:04;78.47;;;31.77;;
4464;SDS011;2245;48.136;13.428;2022-12-15T07:00:33;70.37;;;29.30;;
4464;SDS011;2245;48.136;13.428;2022-12-15T07:03:00;70.97;;;28.20;;
4464;SDS011;2245;48.136;13.428;2022-12-15T07:05:27;68.50;;;27.07;;
4464;SDS011;2245;48.136;13.428;2022-12-15T07:07:54;64.70;;;29.27;;
4464;SDS011;2245;48.136;13.428;2022-12-15T07:10:21;81.07;;;30.47;;
4464;SDS011;2245;48.136;13.428;2022-12-15T07:12:47;81.43;;;36.90;;
4464;SDS011;2245;48.136;13.428;2022-12-15T07:15:15;84.40;;;34.37;;
4464;SDS011;2245;48.136;13.428;2022-12-15T07:17:43;84.80;;;32.40;;
4464;SDS011;2245;48.136;13.428;2022-12-15T07:20:10;66.80;;;29.70;;
4464;SDS011;2245;48.136;13.428;2022-12-15T07:22:37;74.13;;;29.47;;
4464;SDS011;2245;48.136;13.428;2022-12-15T07:25:05;63.50;;;28.40;;
4464;SDS011;2245;48.136;13.428;2022-12-15T07:27:33;51.90;;;26.17;;
4464;SDS011;2245;48.136;13.428;2022-12-15T07:29:59;70.83;;;28.50;;
4464;SDS011;2245;48.136;13.428;2022-12-15T07:32:26;70.37;;;27.67;;
4464;SDS011;2245;48.136;13.428;2022-12-15T07:34:54;59.37;;;26.37;;
4464;SDS011;2245;48.136;13.428;2022-12-15T07:37:21;90.50;;;39.77;;
4464;SDS011;2245;48.136;13.428;2022-12-15T07:39:48;76.40;;;31.80;;
4464;SDS011;2245;48.136;13.428;2022-12-15T07:42:15;62.20;;;29.43;;
4464;SDS011;2245;48.136;13.428;2022-12-15T07:44:42;68.70;;;27.33;;
4464;SDS011;2245;48.136;13.428;2022-12-15T07:47:08;75.90;;;30.40;;
4464;SDS011;2245;48.136;13.428;2022-12-15T07:49:35;59.60;;;27.60;;
4464;SDS011;2245;48.136;13.428;2022-12-15T07:52:03;77.77;;;32.20;;
4464;SDS011;2245;48.136;13.428;2022-12-15T07:54:30;77.27;;;32.63;;
4464;SDS011;2245;48.136;13.428;2022-12-15T07:56:57;69.57;;;29.80;;
4464;SDS011;2245;48.136;13.428;2022-12-15T07:59:24;75.00;;;27.30;;
4464;SDS011;2245;48.136;13.428;2022-12-15T08:01:51;61.03;;;25.67;;
4464;SDS011;2245;48.136;13.428;2022-12-15T08:04:18;69.37;;;28.67;;
4464;SDS011;2245;48.136;13.428;2022-12-15T08:06:45;66.63;;;27.90;;
4464;SDS011;2245;48.136;13.428;2022-12-15T08:09:13;52.90;;;22.90;;
4464;SDS011;2245;48.136;13.428;2022-12-15T08:11:40;70.20;;;27.10;;
4464;SDS011;2245;48.136;13.428;2022-12-15T08:14:07;66.97;;;30.17;;
4464;SDS011;2245;48.136;13.428;2022-12-15T08:16:34;70.60;;;26.80;;
4464;SDS011;2245;48.136;13.428;2022-12-15T08:19:01;64.13;;;29.30;;
4464;SDS011;2245;48.136;13.428;2022-12-15T08:21:29;55.80;;;25.37;;
4464;SDS011;2245;48.136;13.428;2022-12-15T08:23:56;64.67;;;26.47;;
4464;SDS011;2245;48.136;13.428;2022-12-15T08:26:26;55.97;;;20.30;;
4464;SDS011;2245;48.136;13.428;2022-12-15T08:28:53;70.03;;;29.27;;
4464;SDS011;2245;48.136;13.428;2022-12-15T08:31:20;90.60;;;30.80;;
4464;SDS011;2245;48.136;13.428;2022-12-15T08:33:48;69.30;;;30.43;;
4464;SDS011;2245;48.136;13.428;2022-12-15T08:36:17;89.83;;;34.60;;
4464;SDS011;2245;48.136;13.428;2022-12-15T08:38:44;90.17;;;39.30;;
4464;SDS011;2245;48.136;13.428;2022-12-15T08:41:12;73.03;;;33.47;;
4464;SDS011;2245;48.136;13.428;2022-12-15T08:43:42;79.10;;;30.43;;
4464;SDS011;2245;48.136;13.428;2022-12-15T08:46:09;71.23;;;31.03;;
4464;SDS011;2245;48.136;13.428;2022-12-15T08:48:37;79.07;;;31.53;;
4464;SDS011;2245;48.136;13.428;2022-12-15T08:51:04;77.73;;;26.70;;
4464;SDS011;2245;48.136;13.428;2022-12-15T08:53:32;90.60;;;30.90;;
4464;SDS011;2245;48.136;13.428;2022-12-15T08:56:02;73.27;;;27.80;;
4464;SDS011;2245;48.136;13.428;2022-12-15T08:58:30;64.00;;;29.67;;
4464;SDS011;2245;48.136;13.428;2022-12-15T09:01:00;77.60;;;29.30;;
4464;SDS011;2245;48.136;13.428;2022-12-15T09:03:27;63.27;;;24.57;;
4464;SDS011;2245;48.136;13.428;2022-12-15T09:05:54;65.67;;;30.80;;
4464;SDS011;2245;48.136;13.428;2022-12-15T09:08:21;67.67;;;28.83;;
4464;SDS011;2245;48.136;13.428;2022-12-15T09:10:48;80.30;;;31.67;;
4464;SDS011;2245;48.136;13.428;2022-12-15T09:13:16;61.10;;;26.83;;
4464;SDS011;2245;48.136;13.428;2022-12-15T09:15:43;73.47;;;30.17;;
4464;SDS011;2245;48.136;13.428;2022-12-15T09:18:11;121.63;;;43.87;;
4464;SDS011;2245;48.136;13.428;2022-12-15T09:20:38;90.53;;;35.00;;
4464;SDS011;2245;48.136;13.428;2022-12-15T09:23:05;82.93;;;34.50;;
4464;SDS011;2245;48.136;13.428;2022-12-15T09:25:31;70.67;;;29.10;;
4464;SDS011;2245;48.136;13.428;2022-12-15T09:27:59;70.97;;;30.23;;
4464;SDS011;2245;48.136;13.428;2022-12-15T09:30:26;70.17;;;29.03;;
4464;SDS011;2245;48.136;13.428;2022-12-15T09:32:53;62.40;;;27.47;;
4464;SDS011;2245;48.136;13.428;2022-12-15T09:35:21;64.37;;;28.23;;
4464;SDS011;2245;48.136;13.428;2022-12-15T09:37:48;66.50;;;27.83;;
4464;SDS011;2245;48.136;13.428;2022-12-15T09:40:15;97.90;;;40.20;;
4464;SDS011;2245;48.136;13.428;2022-12-15T09:42:42;71.23;;;28.43;;
4464;SDS011;2245;48.136;13.428;2022-12-15T09:45:14;135.03;;;48.00;;
4464;SDS011;2245;48.136;13.428;2022-12-15T09:47:46;57.70;;;26.00;;
4464;SDS011;2245;48.136;13.428;2022-12-15T09:50:17;59.23;;;25.10;;
4464;SDS011;2245;48.136;13.428;2022-12-15T09:52:49;71.90;;;28.60;;
4464;SDS011;2245;48.136;13.428;2022-12-15T09:55:19;70.67;;;28.10;;
4464;SDS011;2245;48.136;13.428;2022-12-15T09:57:48;67.17;;;28.57;;
4464;SDS011;2245;48.136;13.428;2022-12-15T10:00:19;60.73;;;28.10;;
4464;SDS011;2245;48.136;13.428;2022-12-15T10:05:50;67.97;;;26.87;;
4464;SDS011;2245;48.136;13.428;2022-12-15T10:08:31;64.30;;;26.57;;
4464;SDS011;2245;48.136;13.428;2022-12-15T10:11:01;89.27;;;28.37;;
4464;SDS011;2245;48.136;13.428;2022-12-15T10:13:32;69.07;;;28.27;;
4464;SDS011;2245;48.136;13.428;2022-12-15T10:16:04;64.47;;;26.77;;
4464;SDS011;2245;48.136;13.428;2022-12-15T10:18:44;81.87;;;27.90;;
4464;SDS011;2245;48.136;13.428;2022-12-15T10:21:19;61.60;;;28.70;;
4464;SDS011;2245;48.136;13.428;2022-12-15T10:23:46;67.20;;;25.60;;
4464;SDS011;2245;48.136;13.428;2022-12-15T10:26:16;72.17;;;26.17;;
4464;SDS011;2245;48.136;13.428;2022-12-15T10:28:49;67.90;;;28.23;;
4464;SDS011;2245;48.136;13.428;2022-12-15T10:31:22;55.43;;;26.93;;
4464;SDS011;2245;48.136;13.428;2022-12-15T10:33:56;57.83;;;27.17;;
4464;SDS011;2245;48.136;13.428;2022-12-15T10:36:30;54.10;;;24.60;;
4464;SDS011;2245;48.136;13.428;2022-12-15T10:38:57;63.53;;;29.37;;
4464;SDS011;2245;48.136;13.428;2022-12-15T10:41:24;60.57;;;27.30;;
4464;SDS011;2245;48.136;13.428;2022-12-15T10:43:52;78.03;;;31.90;;
4464;SDS011;2245;48.136;13.428;2022-12-15T10:46:21;73.67;;;28.67;;
4464;SDS011;2245;48.136;13.428;2022-12-15T10:48:49;53.43;;;24.80;;
4464;SDS011;2245;48.136;13.428;2022-12-15T10:51:19;69.90;;;29.50;;
4464;SDS011;2245;48.136;13.428;2022-12-15T10:53:49;68.47;;;29.00;;
4464;SDS011;2245;48.136;13.428;2022-12-15T10:56:22;52.53;;;24.50;;
4464;SDS011;2245;48.136;13.428;2022-12-15T10:58:50;58.03;;;25.33;;
4464;SDS011;2245;48.136;13.428;2022-12-15T11:01:19;65.07;;;27.27;;
4464;SDS011;2245;48.136;13.428;2022-12-15T11:03:48;74.90;;;28.97;;
4464;SDS011;2245;48.136;13.428;2022-12-15T11:06:17;74.90;;;30.23;;
4464;SDS011;2245;48.136;13.428;2022-12-15T11:08:45;78.40;;;28.90;;
4464;SDS011;2245;48.136;13.428;2022-12-15T11:14:28;65.40;;;28.80;;
4464;SDS011;2245;48.136;13.428;2022-12-15T11:17:08;78.27;;;29.03;;
4464;SDS011;2245;48.136;13.428;2022-12-15T11:19:35;68.27;;;27.43;;
4464;SDS011;2245;48.136;13.428;2022-12-15T11:22:08;64.90;;;27.60;;
4464;SDS011;2245;48.136;13.428;2022-12-15T11:24:42;71.20;;;26.83;;
4464;SDS011;2245;48.136;13.428;2022-12-15T11:27:12;70.00;;;28.90;;
4464;SDS011;2245;48.136;13.428;2022-12-15T11:29:47;73.03;;;28.30;;
4464;SDS011;2245;48.136;13.428;2022-12-15T11:32:22;74.90;;;28.87;;
4464;SDS011;2245;48.136;13.428;2022-12-15T11:34:50;88.53;;;34.10;;
4464;SDS011;2245;48.136;13.428;2022-12-15T11:40:13;62.87;;;23.07;;
4464;SDS011;2245;48.136;13.428;2022-12-15T11:42:47;67.70;;;28.50;;
4464;SDS011;2245;48.136;13.428;2022-12-15T11:45:21;63.20;;;28.07;;
4464;SDS011;2245;48.136;13.428;2022-12-15T11:47:52;62.43;;;26.93;;
4464;SDS011;2245;48.136;13.428;2022-12-15T11:50:25;93.97;;;39.03;;
4464;SDS011;2245;48.136;13.428;2022-12-15T11:53:10;68.40;;;29.57;;
4464;SDS011;2245;48.136;13.428;2022-12-15T11:55:44;76.50;;;29.77;;
4464;SDS011;2245;48.136;13.428;2022-12-15T12:01:17;54.13;;;23.40;;
4464;SDS011;2245;48.136;13.428;2022-12-15T12:03:53;72.57;;;30.97;;
4464;SDS011;2245;48.136;13.428;2022-12-15T12:06:29;80.50;;;33.23;;
4464;SDS011;2245;48.136;13.428;2022-12-15T12:09:03;59.53;;;25.80;;
4464;SDS011;2245;48.136;13.428;2022-12-15T12:11:52;134.33;;;44.47;;
4464;SDS011;2245;48.136;13.428;2022-12-15T12:14:23;58.10;;;27.13;;
4464;SDS011;2245;48.136;13.428;2022-12-15T12:16:56;41.10;;;18.10;;
4464;SDS011;2245;48.136;13.428;2022-12-15T12:19:29;63.37;;;27.50;;
4464;SDS011;2245;48.136;13.428;2022-12-15T12:21:59;61.60;;;26.20;;
4464;SDS011;2245;48.136;13.428;2022-12-15T12:24:29;59.37;;;27.87;;
4464;SDS011;2245;48.136;13.428;2022-12-15T12:27:01;63.07;;;27.80;;
4464;SDS011;2245;48.136;13.428;2022-12-15T12:29:32;71.43;;;29.57;;
4464;SDS011;2245;48.136;13.428;2022-12-15T12:32:02;62.20;;;24.87;;
4464;SDS011;2245;48.136;13.428;2022-12-15T12:34:35;60.93;;;27.73;;
4464;SDS011;2245;48.136;13.428;2022-12-15T12:37:13;65.20;;;28.17;;
4464;SDS011;2245;48.136;13.428;2022-12-15T12:39:43;64.83;;;27.60;;
4464;SDS011;2245;48.136;13.428;2022-12-15T12:42:13;62.60;;;25.43;;
4464;SDS011;2245;48.136;13.428;2022-12-15T12:44:42;72.13;;;26.17;;
4464;SDS011;2245;48.136;13.428;2022-12-15T12:47:11;64.87;;;28.73;;
4464;SDS011;2245;48.136;13.428;2022-12-15T12:49:40;62.10;;;27.87;;
4464;SDS011;2245;48.136;13.428;2022-12-15T12:52:16;67.17;;;26.07;;
4464;SDS011;2245;48.136;13.428;2022-12-15T12:54:46;73.33;;;29.03;;
4464;SDS011;2245;48.136;13.428;2022-12-15T12:57:36;68.00;;;29.23;;
4464;SDS011;2245;48.136;13.428;2022-12-15T13:00:12;93.43;;;35.73;;
4464;SDS011;2245;48.136;13.428;2022-12-15T13:05:38;81.23;;;33.40;;
4464;SDS011;2245;48.136;13.428;2022-12-15T13:10:54;85.83;;;30.57;;
4464;SDS011;2245;48.136;13.428;2022-12-15T13:13:36;80.50;;;31.93;;
4464;SDS011;2245;48.136;13.428;2022-12-15T13:16:09;60.10;;;23.73;;
4464;SDS011;2245;48.136;13.428;2022-12-15T13:18:54;67.63;;;30.30;;
4464;SDS011;2245;48.136;13.428;2022-12-15T13:21:49;83.00;;;31.70;;
4464;SDS011;2245;48.136;13.428;2022-12-15T13:24:33;79.00;;;31.20;;
4464;SDS011;2245;48.136;13.428;2022-12-15T13:29:57;78.63;;;32.00;;
4464;SDS011;2245;48.136;13.428;2022-12-15T13:32:30;66.40;;;29.40;;
4464;SDS011;2245;48.136;13.428;2022-12-15T13:34:59;70.10;;;30.97;;
4464;SDS011;2245;48.136;13.428;2022-12-15T13:37:46;80.27;;;32.50;;
4464;SDS011;2245;48.136;13.428;2022-12-15T13:40:25;78.47;;;33.17;;
4464;SDS011;2245;48.136;13.428;2022-12-15T13:42:59;86.63;;;32.60;;
4464;SDS011;2245;48.136;13.428;2022-12-15T13:45:47;76.23;;;35.33;;
4464;SDS011;2245;48.136;13.428;2022-12-15T13:51:09;53.80;;;25.73;;
4464;SDS011;2245;48.136;13.428;2022-12-15T13:53:57;55.63;;;25.80;;
4464;SDS011;2245;48.136;13.428;2022-12-15T13:59:12;51.20;;;23.27;;
4464;SDS011;2245;48.136;13.428;2022-12-15T14:01:50;31.43;;;14.37;;
4464;SDS011;2245;48.136;13.428;2022-12-15T14:04:17;37.37;;;13.53;;
4464;SDS011;2245;48.136;13.428;2022-12-15T14:06:46;33.90;;;13.70;;
4464;SDS011;2245;48.136;13.428;2022-12-15T14:09:15;42.77;;;19.47;;
4464;SDS011;2245;48.136;13.428;2022-12-15T14:11:46;40.50;;;18.63;;
4464;SDS011;2245;48.136;13.428;2022-12-15T14:14:15;38.17;;;18.57;;
4464;SDS011;2245;48.136;13.428;2022-12-15T14:16:44;47.37;;;19.43;;
4464;SDS011;2245;48.136;13.428;2022-12-15T14:19:14;31.70;;;14.70;;
4464;SDS011;2245;48.136;13.428;2022-12-15T14:21:47;37.87;;;16.00;;
4464;SDS011;2245;48.136;13.428;2022-12-15T14:24:20;31.07;;;15.47;;
4464;SDS011;2245;48.136;13.428;2022-12-15T14:26:49;45.37;;;22.70;;
4464;SDS011;2245;48.136;13.428;2022-12-15T14:29:16;30.70;;;14.23;;
4464;SDS011;2245;48.136;13.428;2022-12-15T14:31:43;44.77;;;18.70;;
4464;SDS011;2245;48.136;13.428;2022-12-15T14:34:16;41.17;;;16.57;;
4464;SDS011;2245;48.136;13.428;2022-12-15T14:36:46;41.47;;;16.50;;
4464;SDS011;2245;48.136;13.428;2022-12-15T14:39:16;34.23;;;16.13;;
4464;SDS011;2245;48.136;13.428;2022-12-15T14:41:46;39.10;;;16.77;;
4464;SDS011;2245;48.136;13.428;2022-12-15T14:44:15;47.90;;;18.60;;
4464;SDS011;2245;48.136;13.428;2022-12-15T14:46:44;43.00;;;18.40;;
4464;SDS011;2245;48.136;13.428;2022-12-15T14:49:14;42.63;;;14.70;;
4464;SDS011;2245;48.136;13.428;2022-12-15T14:51:46;41.77;;;16.17;;
4464;SDS011;2245;48.136;13.428;2022-12-15T14:54:24;38.20;;;17.37;;
4464;SDS011;2245;48.136;13.428;2022-12-15T14:56:55;45.77;;;18.13;;
4464;SDS011;2245;48.136;13.428;2022-12-15T14:59:24;40.07;;;17.97;;
4464;SDS011;2245;48.136;13.428;2022-12-15T15:01:57;42.53;;;17.70;;
4464;SDS011;2245;48.136;13.428;2022-12-15T15:04:28;40.60;;;16.67;;
4464;SDS011;2245;48.136;13.428;2022-12-15T15:06:57;33.47;;;14.20;;
4464;SDS011;2245;48.136;13.428;2022-12-15T15:09:29;37.83;;;15.37;;
4464;SDS011;2245;48.136;13.428;2022-12-15T15:11:59;42.70;;;14.67;;
4464;SDS011;2245;48.136;13.428;2022-12-15T15:14:29;37.20;;;15.20;;
4464;SDS011;2245;48.136;13.428;2022-12-15T15:16:59;43.67;;;14.30;;
4464;SDS011;2245;48.136;13.428;2022-12-15T15:19:32;40.93;;;17.27;;
4464;SDS011;2245;48.136;13.428;2022-12-15T15:21:59;42.20;;;16.17;;
4464;SDS011;2245;48.136;13.428;2022-12-15T15:24:30;21.47;;;9.43;;
4464;SDS011;2245;48.136;13.428;2022-12-15T15:29:51;27.30;;;12.53;;